createdAt,value
2022-10-04T00:00:16.818Z,10
2022-10-04T00:01:16.856Z,11
2022-10-04T00:02:16.899Z,9
2022-10-04T00:03:16.884Z,8
2022-10-04T00:04:16.850Z,11
2022-10-04T00:05:16.796Z,9
2022-10-04T00:06:16.884Z,10
2022-10-04T00:07:17.072Z,11
2022-10-04T00:08:16.861Z,10
2022-10-04T00:09:16.798Z,11
2022-10-04T00:10:16.825Z,10
2022-10-04T00:11:17.046Z,10
2022-10-04T00:12:16.900Z,7
2022-10-04T00:13:16.802Z,9
2022-10-04T00:14:16.797Z,12
2022-10-04T00:15:17.263Z,10
2022-10-04T00:16:16.881Z,12
2022-10-04T00:17:16.813Z,10
2022-10-04T00:18:16.792Z,8
2022-10-04T00:19:16.929Z,10
2022-10-04T00:20:16.936Z,7
2022-10-04T00:21:16.866Z,10
2022-10-04T00:22:16.847Z,10
2022-10-04T00:23:16.860Z,8
2022-10-04T00:24:16.863Z,9
2022-10-04T00:25:16.871Z,11
2022-10-04T00:26:16.889Z,9
2022-10-04T00:27:16.889Z,8
2022-10-04T00:28:17.007Z,8
2022-10-04T00:29:16.815Z,11
2022-10-04T00:30:16.793Z,10
2022-10-04T00:31:16.981Z,11
2022-10-04T00:32:16.821Z,8
2022-10-04T00:33:16.805Z,8
2022-10-04T00:34:16.831Z,11
2022-10-04T00:35:17.056Z,8
2022-10-04T00:36:16.878Z,7
2022-10-04T00:37:16.847Z,12
2022-10-04T00:38:16.859Z,10
2022-10-04T00:39:16.852Z,9
2022-10-04T00:40:16.875Z,8
2022-10-04T00:41:16.826Z,9
2022-10-04T00:42:16.862Z,10
2022-10-04T00:43:16.846Z,11
2022-10-04T00:44:16.811Z,9
2022-10-04T00:45:16.916Z,12
2022-10-04T00:46:16.995Z,9
2022-10-04T00:47:16.866Z,10
2022-10-04T00:48:16.866Z,10
2022-10-04T00:49:16.835Z,11
2022-10-04T00:50:16.887Z,9
2022-10-04T00:51:16.919Z,10
2022-10-04T00:52:16.954Z,10
2022-10-04T00:53:16.902Z,11
2022-10-04T00:54:16.842Z,8
2022-10-04T00:55:16.922Z,8
2022-10-04T00:56:16.927Z,9
2022-10-04T00:57:16.927Z,10
2022-10-04T00:58:16.953Z,9
2022-10-04T00:59:16.958Z,8
2022-10-04T01:00:16.832Z,9
2022-10-04T01:01:16.920Z,10
2022-10-04T01:02:16.878Z,8
2022-10-04T01:03:16.876Z,10
2022-10-04T01:04:16.839Z,8
2022-10-04T01:05:16.875Z,9
2022-10-04T01:06:16.912Z,9
2022-10-04T01:07:16.894Z,9
2022-10-04T01:08:16.902Z,10
2022-10-04T01:09:16.889Z,10
2022-10-04T01:10:16.925Z,11
2022-10-04T01:11:16.956Z,11
2022-10-04T01:12:17.039Z,11
2022-10-04T01:13:16.863Z,8
2022-10-04T01:14:16.936Z,9
2022-10-04T01:15:16.947Z,11
2022-10-04T01:16:17.086Z,8
2022-10-04T01:17:16.820Z,11
2022-10-04T01:18:16.871Z,12
2022-10-04T01:19:16.834Z,10
2022-10-04T01:20:16.841Z,10
2022-10-04T01:21:16.885Z,10
2022-10-04T01:22:16.859Z,12
2022-10-04T01:23:16.821Z,11
2022-10-04T01:24:16.901Z,9
2022-10-04T01:25:16.868Z,9
2022-10-04T01:26:16.798Z,10
2022-10-04T01:27:16.902Z,8
2022-10-04T01:28:16.826Z,9
2022-10-04T01:29:16.853Z,8
2022-10-04T01:30:16.854Z,11
2022-10-04T01:31:16.897Z,10
2022-10-04T01:32:16.822Z,10
2022-10-04T01:33:16.812Z,9
2022-10-04T01:34:16.812Z,9
2022-10-04T01:35:16.895Z,7
2022-10-04T01:36:16.814Z,9
2022-10-04T01:37:16.855Z,9
2022-10-04T01:38:16.860Z,9
2022-10-04T01:39:16.809Z,12
2022-10-04T01:40:16.812Z,11
2022-10-04T01:41:16.812Z,10
2022-10-04T01:42:16.815Z,9
2022-10-04T01:43:16.818Z,9
2022-10-04T01:44:16.835Z,8
2022-10-04T01:45:16.862Z,9
2022-10-04T01:46:16.913Z,11
2022-10-04T01:47:16.820Z,10
2022-10-04T01:48:16.809Z,9
2022-10-04T01:49:16.884Z,12
2022-10-04T01:50:16.803Z,13
2022-10-04T01:51:16.806Z,8
2022-10-04T01:52:16.833Z,11
2022-10-04T01:53:16.851Z,8
2022-10-04T01:54:16.840Z,10
2022-10-04T01:55:16.818Z,9
2022-10-04T01:56:16.816Z,10
2022-10-04T01:57:16.830Z,8
2022-10-04T01:58:16.816Z,10
2022-10-04T01:59:16.820Z,9
2022-10-04T02:00:16.884Z,8
2022-10-04T02:01:16.931Z,11
2022-10-04T02:02:16.862Z,11
2022-10-04T02:03:16.927Z,12
2022-10-04T02:04:21.878Z,9
2022-10-04T02:05:16.798Z,9
2022-10-04T02:06:16.819Z,8
2022-10-04T02:07:16.853Z,11
2022-10-04T02:08:16.948Z,9
2022-10-04T02:09:16.949Z,9
2022-10-04T02:10:16.858Z,11
2022-10-04T02:11:16.857Z,9
2022-10-04T02:12:16.886Z,9
2022-10-04T02:13:16.810Z,8
2022-10-04T02:14:16.844Z,9
2022-10-04T02:15:16.925Z,9
2022-10-04T02:16:17.007Z,12
2022-10-04T02:17:16.909Z,14
2022-10-04T02:18:16.807Z,8
2022-10-04T02:19:16.919Z,10
2022-10-04T02:20:16.911Z,9
2022-10-04T02:21:16.924Z,9
2022-10-04T02:22:16.849Z,7
2022-10-04T02:23:16.841Z,9
2022-10-04T02:24:16.869Z,11
2022-10-04T02:25:16.807Z,11
2022-10-04T02:26:16.859Z,8
2022-10-04T02:27:16.883Z,7
2022-10-04T02:28:16.944Z,8
2022-10-04T02:29:16.874Z,9
2022-10-04T02:30:16.880Z,11
2022-10-04T02:31:16.946Z,9
2022-10-04T02:32:16.907Z,12
2022-10-04T02:33:16.906Z,8
2022-10-04T02:34:16.915Z,11
2022-10-04T02:35:16.821Z,10
2022-10-04T02:36:16.816Z,8
2022-10-04T02:37:16.849Z,11
2022-10-04T02:38:16.834Z,10
2022-10-04T02:39:17.066Z,10
2022-10-04T02:40:17.176Z,8
2022-10-04T02:41:16.848Z,12
2022-10-04T02:42:16.836Z,10
2022-10-04T02:43:16.817Z,11
2022-10-04T02:44:16.873Z,12
2022-10-04T02:45:16.875Z,8
2022-10-04T02:46:16.986Z,11
2022-10-04T02:47:16.904Z,9
2022-10-04T02:48:16.896Z,10
2022-10-04T02:49:16.807Z,9
2022-10-04T02:50:16.899Z,12
2022-10-04T02:51:16.920Z,9
2022-10-04T02:52:16.924Z,9
2022-10-04T02:53:16.820Z,11
2022-10-04T02:54:16.833Z,11
2022-10-04T02:55:16.877Z,10
2022-10-04T02:56:16.849Z,7
2022-10-04T02:57:16.862Z,10
2022-10-04T02:58:16.853Z,10
2022-10-04T02:59:16.867Z,8
2022-10-04T03:00:16.864Z,6
2022-10-04T03:01:16.968Z,9
2022-10-04T03:02:16.975Z,9
2022-10-04T03:03:16.916Z,10
2022-10-04T03:04:16.809Z,9
2022-10-04T03:05:16.900Z,8
2022-10-04T03:06:16.832Z,8
2022-10-04T03:07:16.930Z,10
2022-10-04T03:08:16.808Z,9
2022-10-04T03:09:16.830Z,8
2022-10-04T03:10:16.918Z,8
2022-10-04T03:11:16.938Z,7
2022-10-04T03:12:16.863Z,10
2022-10-04T03:13:16.956Z,10
2022-10-04T03:14:16.851Z,12
2022-10-04T03:15:16.871Z,9
2022-10-04T03:16:16.950Z,10
2022-10-04T03:17:16.903Z,9
2022-10-04T03:18:16.883Z,7
2022-10-04T03:19:16.838Z,8
2022-10-04T03:20:16.884Z,9
2022-10-04T03:21:16.910Z,10
2022-10-04T03:22:16.914Z,10
2022-10-04T03:23:16.914Z,8
2022-10-04T03:24:16.804Z,7
2022-10-04T03:25:16.817Z,8
2022-10-04T03:26:16.926Z,8
2022-10-04T03:27:16.951Z,7
2022-10-04T03:28:16.878Z,7
2022-10-04T03:29:16.839Z,7
2022-10-04T03:30:16.844Z,10
2022-10-04T03:31:16.956Z,7
2022-10-04T03:32:16.821Z,6
2022-10-04T03:33:16.860Z,9
2022-10-04T03:34:16.895Z,13
2022-10-04T03:35:16.888Z,7
2022-10-04T03:36:16.896Z,9
2022-10-04T03:37:16.922Z,9
2022-10-04T03:38:16.912Z,9
2022-10-04T03:39:16.919Z,8
2022-10-04T03:40:16.922Z,7
2022-10-04T03:41:16.934Z,7
2022-10-04T03:42:16.945Z,8
2022-10-04T03:43:16.841Z,7
2022-10-04T03:44:16.813Z,9
2022-10-04T03:45:16.806Z,8
2022-10-04T03:46:16.957Z,9
2022-10-04T03:47:16.887Z,8
2022-10-04T03:48:16.899Z,7
2022-10-04T03:49:17.161Z,10
2022-10-04T03:50:16.997Z,7
2022-10-04T03:51:16.883Z,8
2022-10-04T03:52:17.030Z,8
2022-10-04T03:53:17.038Z,9
2022-10-04T03:54:17.116Z,6
2022-10-04T03:55:16.916Z,8
2022-10-04T03:56:16.817Z,7
2022-10-04T03:57:16.892Z,8
2022-10-04T03:58:16.972Z,7
2022-10-04T03:59:16.843Z,7
2022-10-04T04:00:16.858Z,9
2022-10-04T04:01:16.918Z,9
2022-10-04T04:02:16.927Z,6
2022-10-04T04:03:16.870Z,7
2022-10-04T04:04:16.821Z,8
2022-10-04T04:05:16.850Z,8
2022-10-04T04:06:16.825Z,8
2022-10-04T04:07:16.907Z,8
2022-10-04T04:08:16.902Z,7
2022-10-04T04:09:16.825Z,7
2022-10-04T04:10:17.057Z,8
2022-10-04T04:11:16.923Z,7
2022-10-04T04:12:16.943Z,8
2022-10-04T04:13:16.869Z,7
2022-10-04T04:14:16.937Z,6
2022-10-04T04:15:16.835Z,7
2022-10-04T04:16:16.961Z,7
2022-10-04T04:17:16.859Z,9
2022-10-04T04:18:16.861Z,7
2022-10-04T04:19:16.910Z,11
2022-10-04T04:20:16.985Z,12
2022-10-04T04:21:16.880Z,8
2022-10-04T04:22:16.848Z,12
2022-10-04T04:23:16.886Z,9
2022-10-04T04:24:16.816Z,8
2022-10-04T04:25:16.902Z,8
2022-10-04T04:26:16.905Z,11
2022-10-04T04:27:16.929Z,11
2022-10-04T04:28:17.013Z,9
2022-10-04T04:29:16.974Z,10
2022-10-04T04:30:16.952Z,9
2022-10-04T04:31:17.219Z,10
2022-10-04T04:32:17.042Z,8
2022-10-04T04:33:20.968Z,10
2022-10-04T04:34:17.131Z,8
2022-10-04T04:35:17.015Z,10
2022-10-04T04:36:17.037Z,9
2022-10-04T04:37:17.161Z,8
2022-10-04T04:38:17.232Z,8
2022-10-04T04:39:16.910Z,11
2022-10-04T04:40:16.901Z,8
2022-10-04T04:41:16.920Z,12
2022-10-04T04:42:16.923Z,8
2022-10-04T04:43:16.940Z,9
2022-10-04T04:44:16.921Z,9
2022-10-04T04:45:16.835Z,10
2022-10-04T04:46:27.201Z,11
2022-10-04T04:47:18.267Z,8
2022-10-04T04:48:16.856Z,12
2022-10-04T04:49:16.848Z,11
2022-10-04T04:50:16.853Z,7
2022-10-04T04:51:16.865Z,9
2022-10-04T04:52:16.907Z,8
2022-10-04T04:53:16.873Z,9
2022-10-04T04:54:16.885Z,8
2022-10-04T04:55:16.892Z,9
2022-10-04T04:56:18.212Z,10
2022-10-04T04:57:16.926Z,7
2022-10-04T04:58:16.908Z,9
2022-10-04T04:59:16.870Z,7
2022-10-04T05:00:16.926Z,9
2022-10-04T05:01:16.931Z,9
2022-10-04T05:02:17.040Z,8
2022-10-04T05:03:16.838Z,8
2022-10-04T05:04:16.838Z,7
2022-10-04T05:05:16.959Z,9
2022-10-04T05:06:16.865Z,7
2022-10-04T05:07:16.983Z,9
2022-10-04T05:08:16.879Z,10
2022-10-04T05:09:16.887Z,7
2022-10-04T05:10:16.811Z,9
2022-10-04T05:11:16.908Z,10
2022-10-04T05:12:16.908Z,6
2022-10-04T05:13:16.911Z,8
2022-10-04T05:14:16.925Z,7
2022-10-04T05:15:19.422Z,11
2022-10-04T05:16:16.946Z,11
2022-10-04T05:17:16.830Z,8
2022-10-04T05:18:16.840Z,9
2022-10-04T05:19:16.943Z,10
2022-10-04T05:20:16.843Z,9
2022-10-04T05:21:16.965Z,10
2022-10-04T05:22:16.879Z,8
2022-10-04T05:23:16.865Z,8
2022-10-04T05:24:16.818Z,9
2022-10-04T05:25:16.869Z,9
2022-10-04T05:26:16.894Z,10
2022-10-04T05:27:16.908Z,11
2022-10-04T05:28:16.935Z,9
2022-10-04T05:29:16.910Z,12
2022-10-04T05:30:16.916Z,10
2022-10-04T05:31:16.917Z,11
2022-10-04T05:32:16.951Z,10
2022-10-04T05:33:16.935Z,9
2022-10-04T05:34:16.840Z,8
2022-10-04T05:35:16.863Z,8
2022-10-04T05:36:16.822Z,8
2022-10-04T05:37:16.898Z,8
2022-10-04T05:38:16.969Z,13
2022-10-04T05:39:16.872Z,8
2022-10-04T05:40:16.879Z,9
2022-10-04T05:41:16.876Z,10
2022-10-04T05:42:16.909Z,9
2022-10-04T05:43:16.831Z,9
2022-10-04T05:44:16.811Z,11
2022-10-04T05:45:16.912Z,8
2022-10-04T05:46:17.053Z,9
2022-10-04T05:47:16.941Z,12
2022-10-04T05:48:16.832Z,10
2022-10-04T05:49:19.324Z,8
2022-10-04T05:50:16.829Z,7
2022-10-04T05:51:16.842Z,10
2022-10-04T05:52:17.006Z,10
2022-10-04T05:53:16.855Z,11
2022-10-04T05:54:16.966Z,10
2022-10-04T05:55:16.869Z,11
2022-10-04T05:56:16.877Z,10
2022-10-04T05:57:16.946Z,9
2022-10-04T05:58:16.825Z,12
2022-10-04T05:59:16.833Z,8
2022-10-04T06:00:16.914Z,12
2022-10-04T06:01:17.039Z,11
2022-10-04T06:02:16.998Z,8
2022-10-04T06:03:16.851Z,10
2022-10-04T06:04:16.928Z,8
2022-10-04T06:05:16.842Z,9
2022-10-04T06:06:16.945Z,9
2022-10-04T06:07:16.859Z,8
2022-10-04T06:08:16.858Z,10
2022-10-04T06:09:16.846Z,11
2022-10-04T06:10:16.972Z,8
2022-10-04T06:11:16.821Z,8
2022-10-04T06:12:16.893Z,9
2022-10-04T06:13:16.887Z,6
2022-10-04T06:14:16.807Z,12
2022-10-04T06:15:16.914Z,9
2022-10-04T06:16:16.974Z,9
2022-10-04T06:17:16.921Z,8
2022-10-04T06:18:16.913Z,9
2022-10-04T06:19:16.919Z,11
2022-10-04T06:20:16.840Z,12
2022-10-04T06:21:16.928Z,8
2022-10-04T06:22:16.858Z,8
2022-10-04T06:23:16.983Z,9
2022-10-04T06:24:16.849Z,8
2022-10-04T06:25:16.863Z,7
2022-10-04T06:26:16.858Z,7
2022-10-04T06:27:16.836Z,9
2022-10-04T06:28:16.960Z,9
2022-10-04T06:29:16.887Z,9
2022-10-04T06:30:16.890Z,8
2022-10-04T06:31:16.982Z,7
2022-10-04T06:32:16.944Z,6
2022-10-04T06:33:16.909Z,9
2022-10-04T06:34:16.921Z,9
2022-10-04T06:35:16.925Z,7
2022-10-04T06:36:16.818Z,8
2022-10-04T06:37:16.952Z,9
2022-10-04T06:38:16.826Z,8
2022-10-04T06:39:16.856Z,11
2022-10-04T06:40:16.815Z,10
2022-10-04T06:41:16.973Z,7
2022-10-04T06:42:16.893Z,8
2022-10-04T06:43:16.883Z,9
2022-10-04T06:44:16.882Z,9
2022-10-04T06:45:16.889Z,7
2022-10-04T06:46:16.959Z,9
2022-10-04T06:47:16.843Z,8
2022-10-04T06:48:17.008Z,8
2022-10-04T06:49:16.910Z,8
2022-10-04T06:50:16.830Z,8
2022-10-04T06:51:16.837Z,7
2022-10-04T06:52:17.663Z,8
2022-10-04T06:53:16.940Z,7
2022-10-04T06:54:16.845Z,9
2022-10-04T06:55:16.840Z,9
2022-10-04T06:56:16.866Z,9
2022-10-04T06:57:16.970Z,8
2022-10-04T06:58:16.864Z,10
2022-10-04T06:59:16.874Z,8
2022-10-04T07:00:16.878Z,8
2022-10-04T07:01:16.959Z,9
2022-10-04T07:02:16.915Z,11
2022-10-04T07:03:16.909Z,9
2022-10-04T07:04:16.867Z,7
2022-10-04T07:05:16.853Z,8
2022-10-04T07:06:16.915Z,9
2022-10-04T07:07:16.950Z,9
2022-10-04T07:08:16.930Z,7
2022-10-04T07:09:16.837Z,10
2022-10-04T07:10:16.848Z,10
2022-10-04T07:11:16.851Z,10
2022-10-04T07:12:16.985Z,8
2022-10-04T07:13:16.810Z,9
2022-10-04T07:14:16.873Z,9
2022-10-04T07:15:16.912Z,9
2022-10-04T07:16:17.103Z,9
2022-10-04T07:17:16.828Z,9
2022-10-04T07:18:16.879Z,9
2022-10-04T07:19:16.837Z,11
2022-10-04T07:20:17.020Z,9
2022-10-04T07:21:16.912Z,11
2022-10-04T07:22:16.932Z,8
2022-10-04T07:23:16.917Z,9
2022-10-04T07:24:16.827Z,10
2022-10-04T07:25:16.869Z,10
2022-10-04T07:26:16.844Z,9
2022-10-04T07:27:16.975Z,8
2022-10-04T07:28:17.053Z,8
2022-10-04T07:29:16.857Z,7
2022-10-04T07:30:16.883Z,8
2022-10-04T07:31:16.916Z,9
2022-10-04T07:32:16.823Z,7
2022-10-04T07:33:16.880Z,9
2022-10-04T07:34:16.862Z,7
2022-10-04T07:35:16.903Z,8
2022-10-04T07:36:21.653Z,9
2022-10-04T07:37:16.830Z,8
2022-10-04T07:38:16.921Z,9
2022-10-04T07:39:16.924Z,9
2022-10-04T07:40:16.974Z,9
2022-10-04T07:41:16.931Z,9
2022-10-04T07:42:16.890Z,10
2022-10-04T07:43:16.944Z,7
2022-10-04T07:44:16.921Z,8
2022-10-04T07:45:16.818Z,9
2022-10-04T07:46:16.877Z,9
2022-10-04T07:47:16.841Z,7
2022-10-04T07:48:16.870Z,8
2022-10-04T07:49:16.880Z,9
2022-10-04T07:50:16.887Z,7
2022-10-04T07:51:16.893Z,9
2022-10-04T07:52:16.918Z,11
2022-10-04T07:53:16.909Z,9
2022-10-04T07:54:16.917Z,8
2022-10-04T07:55:16.917Z,8
2022-10-04T07:56:16.860Z,8
2022-10-04T07:57:16.861Z,7
2022-10-04T07:58:16.831Z,8
2022-10-04T07:59:16.869Z,10
2022-10-04T08:00:16.884Z,10
2022-10-04T08:01:16.884Z,7
2022-10-04T08:02:17.041Z,6
2022-10-04T08:03:16.998Z,7
2022-10-04T08:04:16.885Z,9
2022-10-04T08:05:16.892Z,10
2022-10-04T08:06:16.892Z,6
2022-10-04T08:07:16.911Z,8
2022-10-04T08:08:16.905Z,9
2022-10-04T08:09:16.822Z,7
2022-10-04T08:10:16.810Z,8
2022-10-04T08:11:16.816Z,9
2022-10-04T08:12:16.948Z,6
2022-10-04T08:13:16.824Z,9
2022-10-04T08:14:16.933Z,7
2022-10-04T08:15:16.961Z,9
2022-10-04T08:16:16.916Z,7
2022-10-04T08:17:16.874Z,6
2022-10-04T08:18:16.874Z,8
2022-10-04T08:19:16.875Z,7
2022-10-04T08:20:16.877Z,7
2022-10-04T08:21:16.882Z,8
2022-10-04T08:22:16.876Z,7
2022-10-04T08:23:16.818Z,7
2022-10-04T08:24:16.823Z,8
2022-10-04T08:25:16.908Z,9
2022-10-04T08:26:16.987Z,7
2022-10-04T08:27:17.069Z,8
2022-10-04T08:28:17.143Z,7
2022-10-04T08:29:16.925Z,7
2022-10-04T08:30:16.942Z,6
2022-10-04T08:31:16.943Z,8
2022-10-04T08:32:16.872Z,7
2022-10-04T08:33:16.844Z,8
2022-10-04T08:34:16.869Z,7
2022-10-04T08:35:16.856Z,7
2022-10-04T08:36:16.882Z,7
2022-10-04T08:37:16.896Z,8
2022-10-04T08:38:16.891Z,8
2022-10-04T08:39:16.836Z,7
2022-10-04T08:40:16.908Z,11
2022-10-04T08:41:16.918Z,9
2022-10-04T08:42:16.929Z,8
2022-10-04T08:43:16.811Z,8
2022-10-04T08:44:16.925Z,6
2022-10-04T08:45:16.972Z,10
2022-10-04T08:46:16.928Z,9
2022-10-04T08:47:21.724Z,11
2022-10-04T08:48:16.827Z,9
2022-10-04T08:49:16.860Z,7
2022-10-04T08:50:16.863Z,10
2022-10-04T08:51:16.878Z,9
2022-10-04T08:52:16.892Z,8
2022-10-04T08:53:16.882Z,7
2022-10-04T08:54:16.900Z,10
2022-10-04T08:55:16.901Z,7
2022-10-04T08:56:16.918Z,9
2022-10-04T08:57:16.942Z,7
2022-10-04T08:58:17.015Z,8
2022-10-04T08:59:16.935Z,9
2022-10-04T09:00:16.854Z,8
2022-10-04T09:01:16.975Z,7
2022-10-04T09:02:16.864Z,10
2022-10-04T09:03:16.849Z,5
2022-10-04T09:04:16.863Z,11
2022-10-04T09:05:16.857Z,9
2022-10-04T09:06:16.876Z,10
2022-10-04T09:07:16.889Z,8
2022-10-04T09:08:16.883Z,11
2022-10-04T09:09:16.852Z,8
2022-10-04T09:10:16.987Z,13
2022-10-04T09:11:16.826Z,11
2022-10-04T09:12:16.844Z,7
2022-10-04T09:13:16.904Z,6
2022-10-04T09:14:16.914Z,8
2022-10-04T09:15:16.820Z,8
2022-10-04T09:16:16.966Z,9
2022-10-04T09:17:21.782Z,7
2022-10-04T09:18:16.836Z,8
2022-10-04T09:19:16.858Z,9
2022-10-04T09:20:37.206Z,8
2022-10-04T09:21:16.827Z,8
2022-10-04T09:22:16.992Z,7
2022-10-04T09:23:16.878Z,9
2022-10-04T09:24:16.941Z,9
2022-10-04T09:25:16.897Z,9
2022-10-04T09:26:16.844Z,9
2022-10-04T09:27:31.450Z,8
2022-10-04T09:28:17.004Z,6
2022-10-04T09:29:16.950Z,9
2022-10-04T09:30:16.921Z,10
2022-10-04T09:31:17.010Z,6
2022-10-04T09:32:16.961Z,9
2022-10-04T09:33:16.825Z,7
2022-10-04T09:34:16.849Z,8
2022-10-04T09:35:16.849Z,8
2022-10-04T09:36:16.860Z,11
2022-10-04T09:37:16.877Z,10
2022-10-04T09:38:16.830Z,7
2022-10-04T09:39:32.247Z,8
2022-10-04T09:40:16.877Z,7
2022-10-04T09:41:16.884Z,9
2022-10-04T09:42:16.915Z,8
2022-10-04T09:43:16.896Z,7
2022-10-04T09:44:16.911Z,9
2022-10-04T09:45:16.908Z,6
2022-10-04T09:46:16.962Z,8
2022-10-04T09:47:16.939Z,7
2022-10-04T09:48:16.947Z,8
2022-10-04T09:49:16.954Z,8
2022-10-04T09:50:16.937Z,11
2022-10-04T09:51:16.847Z,7
2022-10-04T09:52:16.856Z,8
2022-10-04T09:53:16.838Z,7
2022-10-04T09:54:16.895Z,10
2022-10-04T09:55:16.997Z,9
2022-10-04T09:56:16.886Z,6
2022-10-04T09:57:16.912Z,6
2022-10-04T09:58:16.897Z,8
2022-10-04T09:59:16.914Z,7
2022-10-04T10:00:16.929Z,9
2022-10-04T10:01:16.983Z,8
2022-10-04T10:02:16.966Z,7
2022-10-04T10:03:16.983Z,5
2022-10-04T10:04:16.869Z,6
2022-10-04T10:05:16.946Z,7
2022-10-04T10:06:16.955Z,6
2022-10-04T10:07:16.856Z,7
2022-10-04T10:08:16.902Z,7
2022-10-04T10:09:16.877Z,7
2022-10-04T10:10:16.916Z,7
2022-10-04T10:11:16.864Z,7
2022-10-04T10:12:16.894Z,6
2022-10-04T10:13:16.824Z,5
2022-10-04T10:14:16.898Z,8
2022-10-04T10:15:17.086Z,8
2022-10-04T10:16:17.302Z,7
2022-10-04T10:17:17.121Z,4
2022-10-04T10:18:17.062Z,7
2022-10-04T10:19:16.941Z,8
2022-10-04T10:20:17.152Z,8
2022-10-04T10:21:17.161Z,6
2022-10-04T10:22:17.265Z,6
2022-10-04T10:23:16.852Z,9
2022-10-04T10:24:16.859Z,5
2022-10-04T10:25:16.851Z,8
2022-10-04T10:26:17.046Z,6
2022-10-04T10:27:17.204Z,8
2022-10-04T10:28:17.010Z,6
2022-10-04T10:29:16.933Z,7
2022-10-04T10:30:16.888Z,5
2022-10-04T10:31:17.013Z,5
2022-10-04T10:32:16.886Z,7
2022-10-04T10:33:16.827Z,7
2022-10-04T10:34:16.912Z,6
2022-10-04T10:35:16.924Z,6
2022-10-04T10:36:16.936Z,6
2022-10-04T10:37:16.954Z,8
2022-10-04T10:38:16.834Z,10
2022-10-04T10:39:16.852Z,7
2022-10-04T10:40:16.849Z,6
2022-10-04T10:41:16.836Z,5
2022-10-04T10:42:16.970Z,6
2022-10-04T10:43:16.975Z,6
2022-10-04T10:44:16.875Z,9
2022-10-04T10:45:16.845Z,8
2022-10-04T10:46:16.972Z,7
2022-10-04T10:47:16.843Z,8
2022-10-04T10:48:16.906Z,6
2022-10-04T10:49:21.394Z,4
2022-10-04T10:50:16.928Z,9
2022-10-04T10:51:16.930Z,6
2022-10-04T10:52:16.960Z,6
2022-10-04T10:53:16.832Z,6
2022-10-04T10:54:16.840Z,7
2022-10-04T10:55:16.851Z,7
2022-10-04T10:56:16.949Z,7
2022-10-04T10:57:16.919Z,6
2022-10-04T10:58:16.876Z,7
2022-10-04T10:59:16.846Z,7
2022-10-04T11:00:16.828Z,5
2022-10-04T11:01:16.913Z,7
2022-10-04T11:02:17.130Z,7
2022-10-04T11:03:21.799Z,4
2022-10-04T11:04:16.913Z,5
2022-10-04T11:05:16.903Z,7
2022-10-04T11:06:16.862Z,5
2022-10-04T11:07:16.946Z,8
2022-10-04T11:08:16.860Z,4
2022-10-04T11:09:16.957Z,6
2022-10-04T11:10:16.839Z,4
2022-10-04T11:11:16.850Z,7
2022-10-04T11:12:16.868Z,8
2022-10-04T11:13:16.965Z,6
2022-10-04T11:14:16.879Z,5
2022-10-04T11:15:16.868Z,5
2022-10-04T11:16:16.940Z,5
2022-10-04T11:17:16.918Z,3
2022-10-04T11:18:16.843Z,7
2022-10-04T11:19:16.895Z,7
2022-10-04T11:20:16.903Z,4
2022-10-04T11:21:16.914Z,5
2022-10-04T11:22:16.938Z,4
2022-10-04T11:23:16.927Z,7
2022-10-04T11:24:16.925Z,6
2022-10-04T11:25:16.936Z,5
2022-10-04T11:26:16.837Z,7
2022-10-04T11:27:16.851Z,6
2022-10-04T11:28:16.903Z,4
2022-10-04T11:29:16.958Z,5
2022-10-04T11:30:16.838Z,5
2022-10-04T11:31:16.925Z,5
2022-10-04T11:32:16.925Z,7
2022-10-04T11:33:16.911Z,5
2022-10-04T11:34:17.047Z,6
2022-10-04T11:35:16.904Z,5
2022-10-04T11:36:16.899Z,7
2022-10-04T11:37:16.927Z,5
2022-10-04T11:38:16.912Z,7
2022-10-04T11:39:16.886Z,6
2022-10-04T11:40:16.839Z,4
2022-10-04T11:41:16.946Z,5
2022-10-04T11:42:16.849Z,4
2022-10-04T11:43:16.867Z,5
2022-10-04T11:44:16.955Z,4
2022-10-04T11:45:16.958Z,4
2022-10-04T11:46:16.905Z,4
2022-10-04T11:47:16.910Z,4
2022-10-04T11:48:16.898Z,4
2022-10-04T11:49:16.836Z,3
2022-10-04T11:50:16.991Z,6
2022-10-04T11:51:16.910Z,5
2022-10-04T11:52:16.909Z,5
2022-10-04T11:53:16.889Z,5
2022-10-04T11:54:16.825Z,5
2022-10-04T11:55:16.824Z,3
2022-10-04T11:56:16.851Z,4
2022-10-04T11:57:16.952Z,4
2022-10-04T11:58:16.854Z,5
2022-10-04T11:59:16.842Z,6
2022-10-04T12:00:16.953Z,4
2022-10-04T12:01:16.924Z,6
2022-10-04T12:02:16.877Z,4
2022-10-04T12:03:16.954Z,5
2022-10-04T12:04:16.968Z,6
2022-10-04T12:05:16.884Z,5
2022-10-04T12:06:16.849Z,6
2022-10-04T12:07:16.920Z,5
2022-10-04T12:08:17.015Z,5
2022-10-04T12:09:16.918Z,6
2022-10-04T12:10:16.915Z,4
2022-10-04T12:11:16.841Z,5
2022-10-04T12:12:17.005Z,4
2022-10-04T12:13:16.936Z,6
2022-10-04T12:14:16.940Z,4
2022-10-04T12:15:16.950Z,6
2022-10-04T12:16:17.035Z,6
2022-10-04T12:17:16.931Z,5
2022-10-04T12:18:16.848Z,5
2022-10-04T12:19:17.062Z,5
2022-10-04T12:20:16.849Z,4
2022-10-04T12:21:16.875Z,6
2022-10-04T12:22:16.936Z,4
2022-10-04T12:23:17.199Z,5
2022-10-04T12:24:17.138Z,5
2022-10-04T12:25:16.912Z,4
2022-10-04T12:26:19.260Z,5
2022-10-04T12:27:16.938Z,4
2022-10-04T12:28:17.048Z,7
2022-10-04T12:29:16.854Z,6
2022-10-04T12:30:16.845Z,4
2022-10-04T12:31:17.038Z,5
2022-10-04T12:32:16.984Z,6
2022-10-04T12:33:16.866Z,4
2022-10-04T12:34:16.873Z,5
2022-10-04T12:35:16.986Z,3
2022-10-04T12:36:16.884Z,6
2022-10-04T12:37:16.910Z,6
2022-10-04T12:38:17.009Z,4
2022-10-04T12:39:17.008Z,4
2022-10-04T12:40:16.905Z,4
2022-10-04T12:41:16.915Z,5
2022-10-04T12:42:16.874Z,3
2022-10-04T12:43:16.930Z,5
2022-10-04T12:44:16.952Z,5
2022-10-04T12:45:16.939Z,5
2022-10-04T12:46:22.117Z,5
2022-10-04T12:47:17.021Z,4
2022-10-04T12:48:16.855Z,4
2022-10-04T12:49:16.968Z,4
2022-10-04T12:50:16.910Z,5
2022-10-04T12:51:16.888Z,5
2022-10-04T12:52:16.905Z,6
2022-10-04T12:53:16.882Z,5
2022-10-04T12:54:16.922Z,5
2022-10-04T12:55:16.897Z,4
2022-10-04T12:56:16.906Z,7
2022-10-04T12:57:16.899Z,5
2022-10-04T12:58:16.922Z,4
2022-10-04T12:59:16.930Z,6
2022-10-04T13:00:16.940Z,4
2022-10-04T13:01:16.923Z,5
2022-10-04T13:02:17.051Z,4
2022-10-04T13:03:16.922Z,5
2022-10-04T13:04:16.966Z,5
2022-10-04T13:05:16.864Z,2
2022-10-04T13:06:16.877Z,3
2022-10-04T13:07:16.894Z,4
2022-10-04T13:08:16.895Z,4
2022-10-04T13:09:16.863Z,3
2022-10-04T13:10:24.566Z,4
2022-10-04T13:11:16.873Z,3
2022-10-04T13:12:16.979Z,4
2022-10-04T13:13:16.873Z,3
2022-10-04T13:14:16.917Z,5
2022-10-04T13:15:16.875Z,5
2022-10-04T13:17:24.471Z,5
2022-10-04T13:18:16.912Z,5
2022-10-04T13:19:16.875Z,4
2022-10-04T13:20:16.871Z,4
2022-10-04T13:21:17.077Z,5
2022-10-04T13:22:31.868Z,4
2022-10-04T13:23:16.887Z,3
2022-10-04T13:24:16.889Z,4
2022-10-04T13:25:16.998Z,4
2022-10-04T13:26:17.004Z,4
2022-10-04T13:27:16.896Z,3
2022-10-04T13:28:17.013Z,4
2022-10-04T13:29:16.929Z,5
2022-10-04T13:30:16.932Z,4
2022-10-04T13:31:16.972Z,4
2022-10-04T13:32:16.972Z,4
2022-10-04T13:33:16.934Z,5
2022-10-04T13:34:16.949Z,4
2022-10-04T13:35:20.472Z,4
2022-10-04T13:36:16.988Z,4
2022-10-04T13:37:16.992Z,4
2022-10-04T13:38:16.971Z,3
2022-10-04T13:39:16.932Z,3
2022-10-04T13:40:16.881Z,5
2022-10-04T13:41:16.928Z,5
2022-10-04T13:42:17.022Z,5
2022-10-04T13:43:16.906Z,3
2022-10-04T13:44:16.915Z,5
2022-10-04T13:45:16.922Z,4
2022-10-04T13:46:17.010Z,4
2022-10-04T13:47:16.970Z,5
2022-10-04T13:48:21.531Z,4
2022-10-04T13:49:16.944Z,4
2022-10-04T13:50:16.958Z,4
2022-10-04T13:51:16.882Z,4
2022-10-04T13:52:21.346Z,3
2022-10-04T13:53:16.917Z,4
2022-10-04T13:54:16.882Z,4
2022-10-04T13:55:16.881Z,4
2022-10-04T13:56:16.928Z,4
2022-10-04T13:57:16.951Z,5
2022-10-04T13:58:16.960Z,4
2022-10-04T13:59:16.954Z,4
2022-10-04T14:00:16.890Z,6
2022-10-04T14:01:16.963Z,3
2022-10-04T14:02:16.994Z,2
2022-10-04T14:03:17.047Z,3
2022-10-04T14:04:16.991Z,4
2022-10-04T14:05:17.001Z,4
2022-10-04T14:06:16.897Z,4
2022-10-04T14:07:16.903Z,3
2022-10-04T14:08:16.917Z,4
2022-10-04T14:09:16.926Z,5
2022-10-04T14:10:16.925Z,5
2022-10-04T14:11:16.938Z,4
2022-10-04T14:12:17.071Z,4
2022-10-04T14:13:16.941Z,5
2022-10-04T14:14:16.962Z,5
2022-10-04T14:15:16.894Z,2
2022-10-04T14:16:17.040Z,3
2022-10-04T14:17:16.967Z,4
2022-10-04T14:18:16.978Z,3
2022-10-04T14:19:16.998Z,5
2022-10-04T14:20:16.925Z,5
2022-10-04T14:21:19.554Z,4
2022-10-04T14:22:17.029Z,2
2022-10-04T14:23:16.930Z,4
2022-10-04T14:24:16.928Z,7
2022-10-04T14:25:21.172Z,6
2022-10-04T14:26:16.899Z,4
2022-10-04T14:27:16.956Z,4
2022-10-04T14:28:17.103Z,3
2022-10-04T14:29:16.958Z,6
2022-10-04T14:30:16.958Z,3
2022-10-04T14:31:17.025Z,3
2022-10-04T14:32:17.167Z,3
2022-10-04T14:33:16.981Z,3
2022-10-04T14:34:16.892Z,4
2022-10-04T14:35:16.948Z,4
2022-10-04T14:36:17.027Z,2
2022-10-04T14:37:17.030Z,2
2022-10-04T14:38:17.018Z,4
2022-10-04T14:39:16.899Z,3
2022-10-04T14:40:16.926Z,3
2022-10-04T14:41:16.933Z,2